createdAt,value
2022-10-18T00:00:04.262Z,3.50
2022-10-18T00:02:32.612Z,4.00
2022-10-18T00:05:00.961Z,3.33
2022-10-18T00:07:29.578Z,3.90
2022-10-18T00:09:58.001Z,4.13
2022-10-18T00:12:26.098Z,3.67
2022-10-18T00:14:55.826Z,3.30
2022-10-18T00:17:24.146Z,3.83
2022-10-18T00:19:52.352Z,3.40
2022-10-18T00:22:20.578Z,3.57
2022-10-18T00:24:48.696Z,3.67
2022-10-18T00:27:16.772Z,3.37
2022-10-18T00:29:44.904Z,4.33
2022-10-18T00:32:14.564Z,4.03
2022-10-18T00:34:42.796Z,3.37
2022-10-18T00:37:10.979Z,3.70
2022-10-18T00:39:40.017Z,3.50
2022-10-18T00:42:08.765Z,3.80
2022-10-18T00:45:05.013Z,3.70
2022-10-18T00:47:37.029Z,3.40
2022-10-18T00:50:09.298Z,3.40
2022-10-18T00:52:41.342Z,3.43
2022-10-18T00:55:11.044Z,3.70
2022-10-18T00:57:41.253Z,3.60
2022-10-18T01:00:11.333Z,3.33
2022-10-18T01:02:44.994Z,3.50
2022-10-18T01:05:14.938Z,3.70
2022-10-18T01:08:15.967Z,3.20
2022-10-18T01:10:50.981Z,3.27
2022-10-18T01:13:34.770Z,3.90
2022-10-18T01:16:13.387Z,3.60
2022-10-18T01:18:47.076Z,3.50
2022-10-18T01:21:24.242Z,3.70
2022-10-18T01:24:25.878Z,3.77
2022-10-18T01:27:06.591Z,3.23
2022-10-18T01:29:51.358Z,3.40
2022-10-18T01:32:25.356Z,3.53
2022-10-18T01:34:57.361Z,3.70
2022-10-18T01:37:27.177Z,3.60
2022-10-18T01:39:59.199Z,3.50
2022-10-18T01:42:27.638Z,3.50
2022-10-18T01:44:57.414Z,3.80
2022-10-18T01:47:28.442Z,3.70
2022-10-18T01:50:00.053Z,4.07
2022-10-18T01:52:28.701Z,3.53
2022-10-18T01:54:58.250Z,3.63
2022-10-18T01:57:36.832Z,3.27
2022-10-18T02:00:11.702Z,3.30
2022-10-18T02:02:49.211Z,3.17
2022-10-18T02:05:25.652Z,3.43
2022-10-18T02:08:18.947Z,3.27
2022-10-18T02:10:52.791Z,3.30
2022-10-18T02:13:23.671Z,3.20
2022-10-18T02:15:58.747Z,3.30
2022-10-18T02:18:35.543Z,3.40
2022-10-18T02:21:06.136Z,3.37
2022-10-18T02:23:35.767Z,3.40
2022-10-18T02:26:04.140Z,3.50
2022-10-18T02:28:32.879Z,3.30
2022-10-18T02:31:07.635Z,3.93
2022-10-18T02:33:44.586Z,3.77
2022-10-18T02:36:20.377Z,3.47
2022-10-18T02:38:49.637Z,4.00
2022-10-18T02:41:24.515Z,3.73
2022-10-18T02:43:52.755Z,3.40
2022-10-18T02:46:21.511Z,4.00
2022-10-18T02:48:51.295Z,3.17
2022-10-18T02:51:19.447Z,3.20
2022-10-18T02:53:47.660Z,3.63
2022-10-18T02:56:16.632Z,3.47
2022-10-18T02:58:44.780Z,3.07
2022-10-18T03:01:13.039Z,3.30
2022-10-18T03:03:41.230Z,3.23
2022-10-18T03:06:11.019Z,3.30
2022-10-18T03:08:42.436Z,3.23
2022-10-18T03:11:10.648Z,3.20
2022-10-18T03:13:39.002Z,3.47
2022-10-18T03:16:07.203Z,3.13
2022-10-18T03:18:45.003Z,3.23
2022-10-18T03:21:16.914Z,3.43
2022-10-18T03:23:45.005Z,3.43
2022-10-18T03:26:13.286Z,3.40
2022-10-18T03:28:41.344Z,2.93
2022-10-18T03:31:09.588Z,3.30
2022-10-18T03:33:37.873Z,3.10
2022-10-18T03:36:06.219Z,3.50
2022-10-18T03:38:35.820Z,3.30
2022-10-18T03:41:03.903Z,3.30
2022-10-18T03:43:32.004Z,3.47
2022-10-18T03:46:00.083Z,3.23
2022-10-18T03:48:28.237Z,3.50
2022-10-18T03:50:56.512Z,3.50
2022-10-18T03:53:24.678Z,3.50
2022-10-18T03:55:55.610Z,3.40
2022-10-18T03:58:24.335Z,3.77
2022-10-18T04:00:52.977Z,3.70
2022-10-18T04:03:24.481Z,3.80
2022-10-18T04:05:52.829Z,3.60
2022-10-18T04:08:21.136Z,3.73
2022-10-18T04:10:50.206Z,3.87
2022-10-18T04:13:19.745Z,4.03
2022-10-18T04:15:48.010Z,3.80
2022-10-18T04:18:16.364Z,3.90
2022-10-18T04:20:46.332Z,3.93
2022-10-18T04:23:14.683Z,3.60
2022-10-18T04:28:13.130Z,3.40
2022-10-18T04:30:42.992Z,3.33
2022-10-18T04:33:11.240Z,3.07
2022-10-18T04:35:39.790Z,3.40
2022-10-18T04:38:08.191Z,3.53
2022-10-18T04:40:36.431Z,3.63
2022-10-18T04:43:04.949Z,3.27
2022-10-18T04:45:33.432Z,4.00
2022-10-18T04:48:05.775Z,3.50
2022-10-18T04:50:34.445Z,3.60
2022-10-18T04:53:03.089Z,3.67
2022-10-18T04:55:31.575Z,3.47
2022-10-18T04:58:00.325Z,3.97
2022-10-18T05:00:28.991Z,3.47
2022-10-18T05:03:01.166Z,3.33
2022-10-18T05:05:49.958Z,3.60
2022-10-18T05:08:19.831Z,3.83
2022-10-18T05:10:53.198Z,4.20
2022-10-18T05:13:21.733Z,3.93
2022-10-18T05:15:53.258Z,4.10
2022-10-18T05:18:21.951Z,3.83
2022-10-18T05:20:52.033Z,4.00
2022-10-18T05:23:22.248Z,4.23
2022-10-18T05:25:52.038Z,3.83
2022-10-18T05:28:41.077Z,3.93
2022-10-18T05:31:11.998Z,3.70
2022-10-18T05:33:40.601Z,3.80
2022-10-18T05:36:14.634Z,4.00
2022-10-18T05:38:44.121Z,3.60
2022-10-18T05:41:13.674Z,3.73
2022-10-18T05:43:45.414Z,3.30
2022-10-18T05:46:15.691Z,3.73
2022-10-18T05:48:45.275Z,4.20
2022-10-18T05:51:15.032Z,3.90
2022-10-18T05:53:43.634Z,3.80
2022-10-18T05:56:12.926Z,4.00
2022-10-18T05:58:41.809Z,4.43
2022-10-18T06:01:11.045Z,3.90
2022-10-18T06:03:39.237Z,4.10
2022-10-18T06:06:12.018Z,3.53
2022-10-18T06:08:56.136Z,4.20
2022-10-18T06:11:24.696Z,3.50
2022-10-18T06:13:55.649Z,3.83
2022-10-18T06:16:27.360Z,3.77
2022-10-18T06:18:59.978Z,3.90
2022-10-18T06:21:31.639Z,4.07
2022-10-18T06:24:01.452Z,4.03
2022-10-18T06:26:30.388Z,20.07
2022-10-18T06:29:00.844Z,9.40
2022-10-18T06:31:29.622Z,9.17
2022-10-18T06:34:00.146Z,12.77
2022-10-18T06:36:29.742Z,5.93
2022-10-18T06:39:00.042Z,4.37
2022-10-18T06:41:32.673Z,5.47
2022-10-18T06:44:20.003Z,4.43
2022-10-18T06:46:49.671Z,4.40
2022-10-18T06:49:19.308Z,4.50
2022-10-18T06:51:48.012Z,4.60
2022-10-18T06:54:18.698Z,4.20
2022-10-18T06:56:48.985Z,5.43
2022-10-18T06:59:18.352Z,5.57
2022-10-18T07:01:46.650Z,4.93
2022-10-18T07:04:18.064Z,5.00
2022-10-18T07:06:46.482Z,4.97
2022-10-18T07:09:14.820Z,5.57
2022-10-18T07:11:43.217Z,5.00
2022-10-18T07:14:16.305Z,5.40
2022-10-18T07:16:44.972Z,5.23
2022-10-18T07:19:16.729Z,5.57
2022-10-18T07:21:45.352Z,5.10
2022-10-18T07:24:14.342Z,5.10
2022-10-18T07:26:43.574Z,4.77
2022-10-18T07:29:13.839Z,4.73
2022-10-18T07:31:44.324Z,4.80
2022-10-18T07:34:15.780Z,5.10
2022-10-18T07:36:47.346Z,5.43
2022-10-18T07:39:16.539Z,6.60
2022-10-18T07:41:45.435Z,6.07
2022-10-18T07:44:19.807Z,6.93
2022-10-18T07:46:48.540Z,5.43
2022-10-18T07:50:29.955Z,5.03
2022-10-18T07:53:35.280Z,5.20
2022-10-18T07:56:09.769Z,5.80
2022-10-18T07:58:38.713Z,5.03
2022-10-18T08:01:11.104Z,5.07
2022-10-18T08:03:39.874Z,5.13
2022-10-18T08:06:09.820Z,5.00
2022-10-18T08:08:41.947Z,4.90
2022-10-18T08:11:12.711Z,5.37
2022-10-18T08:13:41.355Z,5.50
2022-10-18T08:16:16.135Z,4.90
2022-10-18T08:18:47.232Z,5.40
2022-10-18T08:21:17.561Z,4.67
2022-10-18T08:23:45.981Z,5.40
2022-10-18T08:26:16.523Z,5.20
2022-10-18T08:28:53.711Z,5.70
2022-10-18T08:31:30.493Z,5.07
2022-10-18T08:33:59.017Z,5.30
2022-10-18T08:36:27.698Z,5.57
2022-10-18T08:38:57.896Z,4.80
2022-10-18T08:41:51.378Z,4.70
2022-10-18T08:44:23.138Z,5.30
2022-10-18T08:46:56.712Z,4.80
2022-10-18T08:49:29.004Z,4.93
2022-10-18T08:51:58.933Z,4.67
2022-10-18T08:54:37.296Z,4.60
2022-10-18T08:57:14.399Z,4.57
2022-10-18T08:59:44.059Z,4.67
2022-10-18T09:02:34.965Z,4.90
2022-10-18T09:05:17.995Z,4.80
2022-10-18T09:08:22.136Z,4.57
2022-10-18T09:11:01.887Z,5.00
2022-10-18T09:13:51.560Z,4.50
2022-10-18T09:16:23.093Z,4.93
2022-10-18T09:19:00.641Z,4.40
2022-10-18T09:21:38.209Z,4.53
2022-10-18T09:24:13.157Z,4.33
2022-10-18T09:26:46.851Z,4.07
2022-10-18T09:29:32.034Z,4.10
2022-10-18T09:32:07.606Z,4.20
2022-10-18T09:34:42.448Z,4.20
2022-10-18T10:41:03.543Z,3.35
2022-10-18T10:43:38.863Z,2.97
2022-10-18T10:46:13.150Z,3.13
2022-10-18T10:48:48.874Z,3.13
2022-10-18T10:51:29.570Z,2.70
2022-10-18T10:54:02.353Z,2.73
2022-10-18T10:56:32.722Z,2.67
2022-10-18T10:59:09.778Z,2.50
2022-10-18T11:01:41.752Z,2.40
2022-10-18T11:04:27.789Z,2.43
2022-10-18T11:07:05.593Z,2.30
2022-10-18T11:09:45.132Z,3.20
2022-10-18T11:12:27.940Z,2.53
2022-10-18T11:15:10.319Z,2.50
2022-10-18T11:17:45.116Z,2.67
2022-10-18T11:20:20.779Z,2.87
2022-10-18T11:23:00.630Z,2.30
2022-10-18T11:25:43.145Z,2.50
2022-10-18T11:28:25.147Z,2.30
2022-10-18T11:31:10.892Z,2.27
2022-10-18T11:34:08.197Z,2.13
2022-10-18T11:36:56.441Z,2.80
2022-10-18T11:39:51.351Z,2.10
2022-10-18T11:42:25.825Z,2.50
2022-10-18T11:45:03.756Z,2.50
2022-10-18T11:47:41.087Z,2.20
2022-10-18T11:50:26.334Z,2.20
2022-10-18T11:53:08.259Z,2.00
2022-10-18T11:55:46.897Z,2.30
2022-10-18T11:58:36.490Z,2.20
2022-10-18T12:01:12.974Z,2.20
2022-10-18T12:03:51.767Z,1.60
2022-10-18T12:06:24.470Z,2.10
2022-10-18T12:08:57.080Z,2.47
2022-10-18T12:11:30.722Z,3.30
2022-10-18T12:14:02.229Z,3.00
2022-10-18T12:16:51.345Z,3.03
2022-10-18T12:19:39.354Z,2.97
2022-10-18T12:22:17.678Z,3.20
2022-10-18T12:24:57.243Z,3.10
2022-10-18T12:27:45.520Z,2.80
2022-10-18T12:30:26.168Z,2.80
2022-10-18T12:33:27.180Z,2.60
2022-10-18T12:36:08.001Z,3.07
2022-10-18T12:38:47.167Z,2.63
2022-10-18T12:41:22.403Z,3.03
2022-10-18T12:44:04.406Z,2.57
2022-10-18T12:46:48.676Z,2.57
2022-10-18T12:49:31.357Z,2.80
2022-10-18T12:52:06.605Z,2.83
2022-10-18T12:55:10.344Z,2.90
2022-10-18T12:58:05.072Z,2.50
2022-10-18T13:01:04.053Z,2.70
2022-10-18T13:04:07.611Z,2.97
2022-10-18T13:07:26.446Z,2.90
2022-10-18T13:10:44.122Z,3.00
2022-10-18T13:13:41.925Z,2.20
2022-10-18T13:16:44.920Z,2.90
2022-10-18T13:19:29.949Z,2.80
2022-10-18T13:22:15.960Z,3.03
2022-10-18T13:24:51.788Z,2.80
2022-10-18T13:27:36.740Z,2.80
2022-10-18T13:30:23.599Z,2.77
2022-10-18T13:33:08.872Z,2.93
2022-10-18T13:35:56.240Z,3.13
2022-10-18T13:38:44.227Z,3.07
2022-10-18T13:41:25.723Z,2.90
2022-10-18T13:44:12.857Z,3.03
2022-10-18T13:47:25.890Z,2.80
2022-10-18T13:50:30.651Z,3.07
2022-10-18T13:53:22.517Z,2.83
2022-10-18T13:56:23.726Z,3.00
2022-10-18T13:59:15.345Z,2.97
2022-10-18T14:02:36.309Z,3.00
2022-10-18T14:05:44.236Z,2.90
2022-10-18T14:08:37.830Z,3.30
2022-10-18T14:11:15.396Z,2.90
2022-10-18T14:14:03.059Z,2.90
2022-10-18T14:16:38.148Z,2.73
2022-10-18T14:19:18.786Z,3.00
2022-10-18T14:22:03.022Z,2.60
2022-10-18T14:24:41.252Z,3.07
2022-10-18T14:27:30.029Z,2.90
2022-10-18T14:30:15.755Z,2.80
2022-10-18T14:32:46.879Z,3.03
2022-10-18T14:35:32.950Z,3.10
2022-10-18T14:38:04.004Z,2.57
2022-10-18T14:40:42.143Z,3.00
2022-10-18T14:43:21.691Z,2.80
2022-10-18T14:45:52.376Z,2.87
2022-10-18T14:48:28.933Z,3.40
2022-10-18T14:51:34.123Z,3.43
2022-10-18T14:54:25.050Z,3.30
2022-10-18T14:57:01.115Z,3.00
2022-10-18T14:59:33.531Z,2.90
2022-10-18T15:02:14.376Z,3.27
2022-10-18T15:05:07.902Z,3.47
2022-10-18T15:07:45.793Z,3.47
2022-10-18T15:10:22.705Z,3.40
2022-10-18T15:13:09.371Z,3.07
2022-10-18T15:15:39.924Z,3.70
2022-10-18T15:18:11.118Z,3.47
2022-10-18T15:20:44.462Z,3.93
2022-10-18T15:23:26.782Z,4.07
2022-10-18T15:26:31.112Z,3.70
2022-10-18T15:29:04.490Z,3.47
2022-10-18T15:31:53.143Z,3.63
2022-10-18T15:34:24.552Z,4.03
2022-10-18T15:37:14.784Z,3.33
2022-10-18T15:39:47.435Z,3.67
2022-10-18T15:42:56.917Z,3.30
2022-10-18T15:48:46.063Z,3.20
2022-10-18T15:54:54.486Z,3.27
2022-10-18T15:57:25.667Z,3.57
2022-10-18T16:00:00.628Z,3.57
2022-10-18T16:02:31.850Z,3.47
2022-10-18T16:05:03.445Z,3.20
2022-10-18T16:08:06.704Z,3.47
2022-10-18T16:11:12.613Z,3.77
2022-10-18T16:14:06.532Z,3.00
2022-10-18T16:16:49.406Z,3.10
2022-10-18T16:19:29.928Z,3.97
2022-10-18T16:22:06.707Z,3.50
2022-10-18T16:24:40.837Z,3.70
2022-10-18T16:27:13.486Z,3.70
2022-10-18T16:29:59.192Z,4.37
2022-10-18T16:32:46.093Z,4.47
2022-10-18T16:35:16.856Z,4.90
2022-10-18T16:37:48.539Z,5.70
2022-10-18T16:40:26.264Z,5.33
2022-10-18T16:42:54.815Z,5.50
2022-10-18T16:45:26.274Z,5.80
2022-10-18T16:47:54.779Z,6.00
2022-10-18T16:50:29.820Z,5.97
2022-10-18T16:53:01.304Z,6.00
2022-10-18T16:55:30.842Z,5.57
2022-10-18T16:57:59.544Z,5.43
2022-10-18T17:00:27.996Z,5.73
2022-10-18T17:02:56.593Z,5.70
2022-10-18T17:05:29.350Z,5.10
2022-10-18T17:08:05.056Z,5.63
2022-10-18T17:10:37.117Z,6.10
2022-10-18T17:13:11.134Z,5.93
2022-10-18T17:15:41.191Z,5.00
2022-10-18T17:19:20.295Z,5.63
2022-10-18T17:21:33.734Z,5.43
2022-10-18T17:27:17.826Z,5.30
2022-10-18T17:29:46.702Z,5.60
2022-10-18T17:32:15.397Z,5.40
2022-10-18T17:34:44.940Z,5.30
2022-10-18T17:37:30.467Z,6.00
2022-10-18T17:40:00.558Z,5.80
2022-10-18T17:42:30.203Z,6.10
2022-10-18T17:44:58.803Z,5.93
2022-10-18T17:47:29.206Z,6.53
2022-10-18T17:49:57.799Z,6.30
2022-10-18T17:52:28.365Z,6.10
2022-10-18T17:55:30.693Z,6.07
2022-10-18T17:58:03.722Z,5.67
2022-10-18T18:00:49.749Z,4.97
2022-10-18T18:03:22.003Z,4.53
2022-10-18T18:05:51.016Z,4.30
2022-10-18T18:08:20.364Z,4.20
2022-10-18T18:10:55.597Z,3.90
2022-10-18T18:13:32.673Z,4.20
2022-10-18T18:16:23.216Z,4.77
2022-10-18T18:18:56.471Z,4.07
2022-10-18T18:21:30.256Z,4.40
2022-10-18T18:24:24.922Z,3.47
2022-10-18T18:27:46.875Z,3.13
2022-10-18T18:30:57.788Z,3.27
2022-10-18T18:33:57.515Z,3.30
2022-10-18T18:36:46.850Z,3.57
2022-10-18T18:39:35.365Z,3.90
2022-10-18T18:42:17.705Z,3.80
2022-10-18T18:44:58.312Z,4.07
2022-10-18T18:50:59.012Z,3.47
2022-10-18T18:54:45.999Z,3.00
2022-10-18T18:57:19.721Z,3.80
2022-10-18T18:59:50.768Z,3.70
2022-10-18T19:02:35.969Z,4.00
2022-10-18T19:05:41.874Z,3.73
2022-10-18T19:08:44.550Z,3.70
2022-10-18T19:11:43.386Z,3.80
2022-10-18T19:15:13.711Z,3.80
2022-10-18T19:17:54.552Z,3.70
2022-10-18T19:20:45.243Z,3.80
2022-10-18T20:09:22.281Z,3.07
2022-10-18T20:12:05.978Z,2.90
2022-10-18T20:14:55.765Z,3.20
2022-10-18T20:17:35.819Z,3.43
2022-10-18T21:21:30.559Z,4.70
2022-10-18T22:13:39.574Z,6.03
2022-10-18T22:16:35.104Z,7.03
2022-10-18T22:19:30.021Z,7.50
2022-10-18T22:22:12.650Z,8.43
2022-10-18T22:24:41.723Z,6.20
2022-10-18T22:27:19.947Z,7.43
2022-10-18T22:29:59.103Z,7.83
2022-10-18T22:32:40.402Z,9.70
2022-10-18T22:35:13.077Z,9.77
2022-10-18T22:37:47.300Z,9.60
2022-10-18T22:40:23.206Z,11.77
2022-10-18T22:43:08.357Z,12.27
2022-10-18T22:45:58.880Z,12.57
2022-10-18T22:48:27.838Z,11.50
2022-10-18T22:51:21.039Z,14.53
2022-10-18T22:53:51.686Z,14.70
2022-10-18T22:56:22.211Z,12.93
2022-10-18T22:59:00.549Z,12.63
2022-10-18T23:01:35.378Z,11.60
2022-10-18T23:04:06.263Z,10.43
2022-10-18T23:06:37.740Z,10.43
2022-10-18T23:09:17.487Z,9.90
2022-10-18T23:11:50.970Z,8.50
2022-10-18T23:14:22.658Z,8.63
2022-10-18T23:16:55.534Z,8.90
2022-10-18T23:19:28.577Z,8.07
2022-10-18T23:21:58.311Z,8.43
2022-10-18T23:24:33.024Z,8.07
2022-10-18T23:27:19.914Z,7.90
2022-10-18T23:30:13.457Z,7.13
2022-10-18T23:33:06.097Z,8.00
2022-10-18T23:35:50.840Z,7.73
2022-10-18T23:38:35.055Z,6.93
2022-10-18T23:41:16.186Z,7.83
2022-10-18T23:43:53.525Z,7.43
2022-10-18T23:46:40.584Z,7.07
2022-10-18T23:49:39.665Z,6.90
2022-10-18T23:52:17.505Z,6.63
2022-10-18T23:59:25.364Z,7.07
